Time;durP1;ratioP1;P1;durP2;ratioP2;P2;SDS_P1;SDS_P2;PMS_P1;PMS_P2;Temp;Humidity;BMP_temperature;BMP_pressure;BME280_temperature;BME280_humidity;BME280_pressure;Samples;Min_cycle;Max_cycle;Signal;HPM_P1;HPM_P2
2021/12/23 00:02:55;;;;;;;32.42;15.95;;;;;;;-5.11;83.49;101273.31;6269681;28;20033;-79
2021/12/23 00:05:56;;;;;;;30.25;15.07;;;;;;;-5.13;83.23;101267.34;6271017;28;20483;-79
2021/12/23 00:08:59;;;;;;;35.78;15.70;;;;;;;-5.10;83.26;101254.69;6253126;28;20045;-75
2021/12/23 00:12:00;;;;;;;33.53;15.57;;;;;;;-5.08;83.96;101253.06;6270874;28;20049;-79
2021/12/23 00:15:03;;;;;;;35.25;16.77;;;;;;;-5.06;84.15;101261.59;6269579;28;20049;-80
2021/12/23 00:24:29;;;;;;;32.83;16.40;;;;;;;-5.16;84.35;101244.38;6270732;28;20040;-73
2021/12/23 00:27:30;;;;;;;37.85;16.48;;;;;;;-5.02;83.62;101245.56;6270604;28;20163;-79
2021/12/23 00:30:30;;;;;;;33.42;15.38;;;;;;;-4.94;83.09;101246.56;6270814;28;20488;-80
2021/12/23 00:33:33;;;;;;;34.83;16.42;;;;;;;-4.90;82.57;101245.81;6269204;28;20057;-80
2021/12/23 00:36:35;;;;;;;39.58;16.98;;;;;;;-4.87;83.61;101243.31;6253302;28;20045;-79
2021/12/23 00:39:36;;;;;;;33.80;15.20;;;;;;;-4.83;82.96;101248.50;6255948;28;20438;-79
2021/12/23 00:42:38;;;;;;;37.63;16.63;;;;;;;-4.91;82.68;101250.88;6274258;28;20102;-79
2021/12/23 00:45:39;;;;;;;41.20;16.47;;;;;;;-4.87;83.52;101247.56;6257742;28;20041;-79
2021/12/23 00:48:41;;;;;;;41.33;18.52;;;;;;;-4.93;83.73;101233.00;6274049;28;20111;-79
2021/12/23 00:51:41;;;;;;;40.38;19.10;;;;;;;-4.86;83.63;101239.06;6275259;28;20484;-79
2021/12/23 00:54:42;;;;;;;40.03;17.65;;;;;;;-4.89;83.77;101241.56;6275157;28;20098;-79
2021/12/23 00:57:43;;;;;;;38.10;16.30;;;;;;;-4.89;83.85;101249.22;6257429;28;20451;-79
2021/12/23 01:00:45;;;;;;;30.60;15.98;;;;;;;-4.86;85.42;101242.50;6273664;28;20045;-80
2021/12/23 01:03:46;;;;;;;39.00;18.13;;;;;;;-4.90;84.40;101237.28;6274972;28;20052;-79
2021/12/23 01:06:48;;;;;;;41.75;17.83;;;;;;;-4.90;84.16;101233.09;6273792;28;20045;-74
2021/12/23 01:09:49;;;;;;;43.03;16.90;;;;;;;-4.86;85.20;101236.53;6275010;28;20045;-73
2021/12/23 01:12:56;;;;;;;40.30;16.60;;;;;;;-4.96;85.04;101227.88;6274698;28;20094;-73
2021/12/23 01:18:59;;;;;;;36.75;17.70;;;;;;;-4.81;85.50;101226.47;6274846;28;20124;-79
2021/12/23 01:22:00;;;;;;;34.65;18.30;;;;;;;-4.74;85.82;101230.84;6273240;28;20045;-80
2021/12/23 01:25:01;;;;;;;45.00;18.58;;;;;;;-4.83;85.76;101223.03;6273039;28;20090;-79
2021/12/23 01:28:03;;;;;;;41.45;20.17;;;;;;;-4.76;85.12;101223.16;6273185;28;20686;-80
2021/12/23 01:31:04;;;;;;;48.92;20.75;;;;;;;-4.82;86.15;101217.94;6273417;28;20045;-80
2021/12/23 01:34:06;;;;;;;45.20;20.40;;;;;;;-4.89;86.27;101219.50;6274108;28;20495;-80
2021/12/23 01:37:06;;;;;;;48.10;21.65;;;;;;;-4.84;86.20;101218.75;6273123;28;20118;-80
2021/12/23 01:40:09;;;;;;;40.97;19.00;;;;;;;-4.83;85.59;101226.44;6273036;28;20480;-80
2021/12/23 01:43:10;;;;;;;45.78;20.95;;;;;;;-4.79;85.67;101219.72;6272744;28;20447;-74
2021/12/23 01:46:11;;;;;;;48.25;21.40;;;;;;;-4.80;86.24;101218.84;6256132;28;20041;-74
2021/12/23 01:49:12;;;;;;;50.83;21.58;;;;;;;-4.87;85.86;101212.75;6272493;28;20048;-74
2021/12/23 01:52:13;;;;;;;44.97;21.10;;;;;;;-4.82;86.78;101223.03;6272913;28;20048;-74
2021/12/23 01:55:13;;;;;;;50.95;21.83;;;;;;;-4.77;86.30;101206.19;6273616;28;20051;-74
2021/12/23 01:58:15;;;;;;;50.83;22.88;;;;;;;-4.82;85.80;101201.81;6272485;28;20444;-73
2021/12/23 02:01:16;;;;;;;50.95;22.33;;;;;;;-4.71;85.36;101205.44;6273446;28;20040;-73
2021/12/23 02:04:17;;;;;;;51.97;23.30;;;;;;;-4.67;86.08;101200.44;6272357;28;20048;-74
2021/12/23 02:07:19;;;;;;;53.10;21.25;;;;;;;-4.63;85.23;101198.81;6273418;28;20084;-74
2021/12/23 02:10:20;;;;;;;46.58;21.83;;;;;;;-4.66;84.95;101199.59;6273420;28;20116;-74
2021/12/23 02:13:22;;;;;;;51.83;21.92;;;;;;;-4.69;84.46;101188.50;6247098;28;20044;-74
2021/12/23 02:16:23;;;;;;;56.13;22.23;;;;;;;-4.63;84.84;101182.66;6263942;28;20060;-80
2021/12/23 02:19:24;;;;;;;55.33;21.60;;;;;;;-4.61;83.77;101183.53;6273140;28;20281;-79
2021/12/23 02:22:25;;;;;;;44.60;20.10;;;;;;;-4.68;83.64;101185.13;6271750;28;20041;-79
2021/12/23 02:25:26;;;;;;;54.70;20.90;;;;;;;-4.68;82.28;101187.66;6271887;28;20468;-79
2021/12/23 02:28:27;;;;;;;46.22;19.13;;;;;;;-4.69;81.49;101178.31;6271260;28;20041;-80
2021/12/23 02:31:28;;;;;;;34.92;16.75;;;;;;;-4.72;81.55;101180.78;6271860;28;20200;-79
2021/12/23 02:34:28;;;;;;;45.50;19.23;;;;;;;-4.74;81.06;101178.22;6272531;28;20535;-73
2021/12/23 02:37:29;;;;;;;38.33;17.60;;;;;;;-4.63;79.92;101170.81;6271550;28;20037;-80
2021/12/23 02:40:34;;;;;;;31.63;15.40;;;;;;;-4.80;79.63;101165.34;6272604;28;20041;-79
2021/12/23 02:43:36;;;;;;;40.30;17.63;;;;;;;-4.84;80.12;101162.72;6272590;28;20049;-79
2021/12/23 02:46:37;;;;;;;38.42;18.88;;;;;;;-4.75;78.94;101163.78;6272499;28;20044;-80
2021/12/23 02:49:38;;;;;;;38.05;18.08;;;;;;;-4.68;78.95;101162.19;6272666;28;20130;-74
2021/12/23 02:52:39;;;;;;;36.75;17.60;;;;;;;-4.67;78.75;101167.31;6271255;28;20045;-74
2021/12/23 02:55:39;;;;;;;39.70;18.13;;;;;;;-4.69;78.40;101170.69;6271062;28;20093;-74
2021/12/23 02:58:42;;;;;;;40.70;17.40;;;;;;;-4.75;78.27;101163.78;6272240;28;20080;-73
2021/12/23 03:01:43;;;;;;;40.55;16.10;;;;;;;-4.64;77.51;101158.03;6254422;28;20045;-79
2021/12/23 03:04:44;;;;;;;36.75;15.90;;;;;;;-4.58;76.41;101160.69;6271714;28;20541;-79
2021/12/23 03:07:44;;;;;;;31.02;15.13;;;;;;;-4.76;74.45;101158.66;6254199;28;20091;-80
2021/12/23 03:10:45;;;;;;;28.58;13.23;;;;;;;-4.87;73.94;101164.38;6270811;28;20091;-80
2021/12/23 03:13:47;;;;;;;29.02;13.35;;;;;;;-4.86;74.58;101157.59;6272005;28;20052;-80
2021/12/23 03:16:50;;;;;;;28.27;12.70;;;;;;;-4.87;74.46;101151.66;6271141;28;20056;-80
2021/12/23 03:19:50;;;;;;;30.90;14.55;;;;;;;-4.80;75.03;101159.41;6271158;28;20072;-80
2021/12/23 03:22:51;;;;;;;104.13;35.47;;;;;;;-4.83;75.83;101152.59;6271590;28;20479;-80
2021/12/23 03:25:52;;;;;;;44.47;17.85;;;;;;;-4.87;74.27;101146.56;6271617;28;20048;-80
2021/12/23 03:28:53;;;;;;;35.08;12.98;;;;;;;-4.70;74.83;101144.34;6270249;28;20037;-80
2021/12/23 03:31:53;;;;;;;24.73;10.95;;;;;;;-4.81;73.87;101134.78;6270441;28;20041;-80
2021/12/23 03:34:54;;;;;;;20.73;9.88;;;;;;;-4.75;74.32;101142.56;6271328;28;20496;-79
2021/12/23 03:37:55;;;;;;;25.98;10.02;;;;;;;-4.76;72.87;101133.19;6270296;28;20119;-80
2021/12/23 03:40:56;;;;;;;18.45;9.30;;;;;;;-4.77;73.27;101119.59;6253719;28;20475;-79
2021/12/23 03:43:57;;;;;;;21.40;8.93;;;;;;;-4.80;72.65;101134.81;6270115;28;20041;-80
2021/12/23 03:46:58;;;;;;;18.00;8.98;;;;;;;-4.78;72.50;101137.38;6237049;28;20061;-80
2021/12/23 03:49:59;;;;;;;26.15;9.43;;;;;;;-4.71;72.31;101135.00;6253384;28;20091;-79
2021/12/23 03:52:59;;;;;;;17.85;8.65;;;;;;;-4.80;72.63;101129.72;6253450;28;20045;-80
2021/12/23 03:56:00;;;;;;;24.00;9.80;;;;;;;-4.77;72.48;101128.94;6269748;28;20052;-79
2021/12/23 03:59:01;;;;;;;18.38;9.10;;;;;;;-4.74;74.18;101132.38;6269839;28;20067;-80
2021/12/23 04:02:02;;;;;;;18.67;9.82;;;;;;;-4.76;72.91;101128.09;6269817;28;20055;-79
2021/12/23 04:05:06;;;;;;;19.05;9.75;;;;;;;-4.64;72.45;101130.00;6271003;28;20049;-79
2021/12/23 04:08:07;;;;;;;16.55;8.68;;;;;;;-4.63;71.80;101126.63;6270887;28;20114;-79
2021/12/23 04:11:08;;;;;;;23.40;9.88;;;;;;;-4.71;72.64;101112.06;6270817;28;20041;-80
2021/12/23 04:14:09;;;;;;;22.25;9.27;;;;;;;-4.67;72.65;101113.84;6271603;28;20076;-80
2021/12/23 04:17:10;;;;;;;17.10;8.90;;;;;;;-4.73;71.70;101117.97;6275915;28;20440;-80
2021/12/23 04:20:53;;;;;;;17.98;7.70;;;;;;;-4.86;72.27;101121.94;6258528;28;20059;-79
2021/12/23 04:23:35;;;;;;;21.23;9.20;;;;;;;-4.76;72.65;101125.53;6277928;28;20053;-79
2021/12/23 04:26:38;;;;;;;16.75;7.55;;;;;;;-4.83;71.52;101114.38;6274720;28;20045;-74
2021/12/23 04:29:39;;;;;;;16.63;8.77;;;;;;;-4.75;71.07;101130.66;6275683;28;20040;-74
2021/12/23 04:32:41;;;;;;;17.30;7.72;;;;;;;-4.71;70.49;101121.41;6275867;28;20496;-74
2021/12/23 04:35:42;;;;;;;15.13;7.70;;;;;;;-4.78;70.35;101112.78;6275396;28;20118;-74
2021/12/23 04:38:44;;;;;;;25.23;8.65;;;;;;;-4.71;70.06;101116.31;6275765;28;20542;-74
2021/12/23 04:41:45;;;;;;;16.70;8.20;;;;;;;-4.71;70.19;101106.97;6257757;28;20053;-74
2021/12/23 04:44:46;;;;;;;17.58;8.57;;;;;;;-4.70;71.21;101106.13;6275356;28;20041;-74
2021/12/23 04:47:47;;;;;;;18.63;8.80;;;;;;;-4.77;70.67;101103.47;6257525;28;20494;-73
2021/12/23 04:50:48;;;;;;;19.33;8.45;;;;;;;-4.89;71.23;101101.53;6274087;28;20064;-74
2021/12/23 04:53:49;;;;;;;16.15;8.75;;;;;;;-5.04;71.71;101102.13;6275425;28;20040;-74
2021/12/23 04:56:50;;;;;;;22.05;9.88;;;;;;;-5.07;72.41;101091.84;6241348;28;20095;-74
2021/12/23 04:59:52;;;;;;;21.08;9.90;;;;;;;-5.16;72.62;101091.69;6273888;28;20041;-74
2021/12/23 05:02:52;;;;;;;23.17;9.50;;;;;;;-5.08;72.61;101098.66;6274987;28;20495;-79
2021/12/23 05:05:53;;;;;;;18.38;8.52;;;;;;;-5.15;73.20;101096.78;6273703;28;20044;-79
2021/12/23 05:08:54;;;;;;;17.98;7.90;;;;;;;-5.13;73.09;101097.69;6257142;28;20120;-79
2021/12/23 05:11:55;;;;;;;26.10;9.27;;;;;;;-5.16;73.54;101084.06;6274964;28;20086;-79
2021/12/23 05:14:56;;;;;;;23.15;9.43;;;;;;;-5.17;72.55;101089.97;6257119;28;20049;-79
2021/12/23 05:17:57;;;;;;;18.90;8.40;;;;;;;-5.11;73.57;101080.75;6253234;28;20395;-79
2021/12/23 05:20:58;;;;;;;20.95;9.40;;;;;;;-5.15;72.50;101078.97;6274630;28;20037;-74
2021/12/23 05:23:59;;;;;;;19.33;9.35;;;;;;;-5.25;73.03;101077.09;6273279;28;20064;-79
2021/12/23 05:27:00;;;;;;;18.60;9.07;;;;;;;-5.32;73.64;101065.06;6273231;28;20056;-79
2021/12/23 05:30:03;;;;;;;23.70;9.52;;;;;;;-5.24;73.96;101070.31;6273082;28;20080;-79
2021/12/23 05:33:05;;;;;;;23.50;9.43;;;;;;;-5.24;73.18;101083.06;6290039;28;20095;-79
2021/12/23 05:36:06;;;;;;;20.60;8.38;;;;;;;-5.35;74.69;101081.16;6273053;28;20048;-74
2021/12/23 05:39:06;;;;;;;19.42;8.63;;;;;;;-5.39;75.04;101078.50;6274542;28;20041;-73
2021/12/23 05:42:07;;;;;;;21.20;9.38;;;;;;;-5.52;75.52;101069.75;6272800;28;20044;-73
2021/12/23 05:45:10;;;;;;;20.15;8.80;;;;;;;-5.48;75.93;101077.50;6256399;28;20037;-74
2021/12/23 05:48:11;;;;;;;22.42;9.73;;;;;;;-5.56;76.32;101075.59;6273922;28;20562;-79
2021/12/23 05:51:11;;;;;;;15.23;8.32;;;;;;;-5.55;75.34;101077.34;6272734;28;20052;-79
2021/12/23 05:54:13;;;;;;;22.33;8.93;;;;;;;-5.49;75.93;101080.00;6256196;28;20120;-79
2021/12/23 05:57:13;;;;;;;18.90;8.57;;;;;;;-5.49;76.01;101078.31;6273750;28;20041;-78
2021/12/23 06:00:18;;;;;;;20.52;9.32;;;;;;;-5.55;75.94;101077.34;6273623;28;20044;-79
2021/12/23 06:03:19;;;;;;;22.05;9.65;;;;;;;-5.67;75.48;101081.31;6273571;28;20465;-79
2021/12/23 06:06:20;;;;;;;22.45;8.77;;;;;;;-5.63;76.57;101073.75;6272437;28;20488;-79
2021/12/23 06:09:21;;;;;;;22.38;8.05;;;;;;;-5.67;76.97;101072.84;6272261;28;20128;-79
2021/12/23 06:12:22;;;;;;;17.42;8.07;;;;;;;-5.67;76.47;101072.84;6272334;28;20041;-79
2021/12/23 06:15:22;;;;;;;29.02;11.60;;;;;;;-5.70;77.17;101080.41;6271849;28;20064;-79
2021/12/23 06:18:23;;;;;;;27.48;12.00;;;;;;;-5.75;77.35;101080.28;6272504;28;20415;-79
2021/12/23 06:21:28;;;;;;;19.40;7.82;;;;;;;-5.74;76.16;101087.09;6271423;28;20124;-79
2021/12/23 06:24:29;;;;;;;17.75;7.72;;;;;;;-5.62;77.36;101094.16;6271915;28;20049;-79
2021/12/23 06:27:30;;;;;;;16.75;8.20;;;;;;;-5.54;76.32;101095.19;6270039;28;20045;-74
2021/12/23 06:30:31;;;;;;;18.58;9.00;;;;;;;-5.65;76.13;101088.97;6255290;28;20144;-74
2021/12/23 06:33:32;;;;;;;19.48;8.30;;;;;;;-5.64;76.87;101094.91;6270730;28;20076;-73
2021/12/23 06:36:33;;;;;;;20.00;8.45;;;;;;;-5.66;75.79;101089.81;6253846;28;20059;-78
2021/12/23 06:39:36;;;;;;;18.15;8.40;;;;;;;-5.58;76.07;101103.56;6270723;28;20033;-78
2021/12/23 06:42:37;;;;;;;15.80;7.38;;;;;;;-5.51;75.99;101086.75;6271134;28;20041;-78
2021/12/23 06:45:38;;;;;;;16.35;7.90;;;;;;;-5.47;75.14;101083.44;6272563;28;20040;-73
2021/12/23 06:48:38;;;;;;;24.20;9.00;;;;;;;-5.35;75.55;101078.59;6254536;28;20558;-73
2021/12/23 06:51:39;;;;;;;19.55;8.23;;;;;;;-5.34;75.27;101098.13;6271141;28;20041;-73
2021/12/23 06:54:52;;;;;;;17.73;8.45;;;;;;;-5.31;75.37;101079.53;6254926;28;20405;-73
2021/12/23 06:57:56;;;;;;;;;;;;;;;-5.33;74.11;101093.91;6271436;28;20073;-73
2021/12/23 07:00:57;;;;;;;17.67;7.20;;;;;;;-5.37;75.00;101092.97;6272248;28;20365;-73
2021/12/23 07:07:09;;;;;;;26.73;11.38;;;;;;;-5.18;76.06;101085.72;6272290;28;20094;-78
2021/12/23 07:10:10;;;;;;;86.30;23.48;;;;;;;-5.10;76.03;101097.75;6255677;28;20048;-73
2021/12/23 07:13:11;;;;;;;69.85;21.10;;;;;;;-5.08;74.59;101098.66;6254581;28;20214;-78
2021/12/23 07:16:13;;;;;;;113.22;33.90;;;;;;;-5.15;74.45;101099.34;6270615;28;20041;-78
2021/12/23 07:19:13;;;;;;;66.38;23.95;;;;;;;-5.12;74.31;101101.09;6253846;28;20477;-78
2021/12/23 07:22:14;;;;;;;101.90;34.47;;;;;;;-5.04;74.48;101094.47;6245060;28;20038;-79
2021/12/23 07:25:15;;;;;;;47.58;16.98;;;;;;;-5.01;74.62;101080.94;6247044;28;20067;-79
2021/12/23 07:28:16;;;;;;;61.15;20.20;;;;;;;-4.99;74.71;101077.59;6245645;28;20049;-73
2021/12/23 07:31:17;;;;;;;37.38;14.18;;;;;;;-4.92;74.01;101082.00;6261141;28;20503;-74
2021/12/23 07:34:18;;;;;;;126.32;40.60;;;;;;;-4.76;74.88;101070.38;6263695;28;20061;-74
2021/12/23 07:37:20;;;;;;;75.75;28.42;;;;;;;-4.79;73.55;101067.78;6258971;28;20029;-73
2021/12/23 07:40:21;;;;;;;52.70;20.50;;;;;;;-4.64;72.61;101067.19;6271587;28;20045;-74
2021/12/23 07:43:42;;;;;;;63.58;24.35;;;;;;;-4.53;72.29;101070.78;6269675;28;20041;-73
2021/12/23 07:46:43;;;;;;;23.65;11.07;;;;;;;-4.29;71.58;101059.28;6241616;28;20396;-74
2021/12/23 07:49:45;;;;;;;50.67;20.35;;;;;;;-4.05;70.74;101074.94;6269981;28;20045;-74
2021/12/23 07:52:45;;;;;;;22.73;13.88;;;;;;;-3.77;69.30;101082.13;6269954;28;20229;-74
2021/12/23 07:55:46;;;;;;;19.48;10.15;;;;;;;-3.52;68.88;101083.31;6271138;28;20068;-74
2021/12/23 07:58:47;;;;;;;17.95;8.85;;;;;;;-3.35;68.42;101081.84;6269652;28;20120;-74
2021/12/23 08:01:48;;;;;;;23.80;12.38;;;;;;;-3.66;69.10;101072.94;6269169;28;20051;-74
2021/12/23 08:04:49;;;;;;;14.82;8.63;;;;;;;-3.49;69.07;101074.00;6252440;28;20033;-74
2021/12/23 08:07:50;;;;;;;13.88;6.78;;;;;;;-3.62;68.49;101050.88;6253812;28;20057;-74
2021/12/23 08:10:50;;;;;;;25.58;10.82;;;;;;;-3.71;67.14;101055.00;6254186;28;20519;-74
2021/12/23 08:13:51;;;;;;;19.17;8.35;;;;;;;-3.72;66.32;101047.34;6269451;28;20082;-74
2021/12/23 08:16:52;;;;;;;35.63;14.32;;;;;;;-3.39;65.12;101049.47;6270185;28;20476;-75
2021/12/23 08:19:53;;;;;;;42.88;17.08;;;;;;;-3.24;65.39;101038.56;6253313;28;20453;-75
2021/12/23 08:22:53;;;;;;;11.32;5.75;;;;;;;-3.20;61.62;101047.13;6247211;28;20468;-75
2021/12/23 08:25:55;;;;;;;12.95;6.47;;;;;;;-2.84;62.15;101046.69;6262385;28;20133;-75
2021/12/23 08:28:57;;;;;;;15.17;6.30;;;;;;;-2.68;60.71;101050.22;6253492;28;20048;-75
2021/12/23 08:31:57;;;;;;;15.55;6.55;;;;;;;-2.61;60.38;101043.44;6250015;28;20484;-75
2021/12/23 08:34:58;;;;;;;14.10;7.68;;;;;;;-2.39;60.00;101055.56;6269377;28;20079;-76
2021/12/23 08:38:00;;;;;;;14.05;6.90;;;;;;;-2.12;59.46;101037.03;6236816;28;20049;-75
2021/12/23 08:41:01;;;;;;;12.00;6.93;;;;;;;-2.17;59.08;101050.63;6269644;28;20410;-75
2021/12/23 08:44:02;;;;;;;14.27;6.55;;;;;;;-2.19;57.25;101042.09;6252802;28;20037;-76
2021/12/23 08:47:03;;;;;;;14.75;6.18;;;;;;;-2.44;57.99;101039.34;6267566;28;20037;-75
2021/12/23 08:50:07;;;;;;;10.82;6.30;;;;;;;-2.07;57.34;101045.59;6240365;28;20428;-75
2021/12/23 08:53:08;;;;;;;11.73;6.10;;;;;;;-2.03;57.33;101043.91;6260809;28;20547;-75
2021/12/23 08:56:10;;;;;;;19.45;8.35;;;;;;;-2.06;57.09;101031.97;6260705;28;20033;-75
2021/12/23 08:59:12;;;;;;;12.50;6.72;;;;;;;-1.86;56.67;101031.22;6257465;28;20042;-75
2021/12/23 09:02:14;;;;;;;20.30;8.02;;;;;;;-1.79;57.36;101029.53;6263318;28;20048;-75
2021/12/23 09:05:35;;;;;;;14.90;6.82;;;;;;;-1.66;57.44;101024.50;6262328;28;20589;-75
2021/12/23 09:08:44;;;;;;;15.13;6.82;;;;;;;-1.67;56.87;101014.25;6249588;28;20053;-75
2021/12/23 09:11:46;;;;;;;12.90;5.90;;;;;;;-1.88;57.63;101012.44;6255928;28;20048;-75
2021/12/23 09:14:50;;;;;;;16.13;7.38;;;;;;;-1.82;57.84;101003.09;6250669;28;20046;-75
2021/12/23 09:17:51;;;;;;;18.17;9.30;;;;;;;-1.76;57.25;101001.44;6251113;28;20057;-76
2021/12/23 09:20:54;;;;;;;17.02;6.88;;;;;;;-1.82;56.73;100982.63;6251155;28;20053;-75
2021/12/23 09:23:55;;;;;;;14.40;6.35;;;;;;;-1.75;57.73;100977.53;6251481;28;20132;-75
2021/12/23 09:27:09;;;;;;;12.50;5.43;;;;;;;-1.64;57.92;100978.44;6248683;28;20575;-75
2021/12/23 09:33:30;;;;;;;15.77;7.22;;;;;;;-1.46;58.73;100968.28;6249411;28;20623;-75
2021/12/23 09:36:31;;;;;;;15.38;8.35;;;;;;;-1.31;57.69;100972.56;6256432;28;20045;-76
2021/12/23 09:39:32;;;;;;;17.10;6.63;;;;;;;-1.29;57.60;100950.38;6242969;28;20560;-76
2021/12/23 09:42:34;;;;;;;12.38;6.90;;;;;;;-1.20;58.43;100941.84;6258442;28;20060;-76
2021/12/23 09:45:36;;;;;;;11.97;6.47;;;;;;;-0.96;57.55;100928.22;6262172;28;20044;-76
2021/12/23 09:48:42;;;;;;;;;;;;;;;-0.91;57.66;100928.22;6263357;28;20029;-76
2021/12/23 09:51:43;;;;;;;12.55;5.45;;;;;;;-1.03;57.52;100929.06;6264674;28;19925;-76
2021/12/23 09:54:44;;;;;;;11.93;6.37;;;;;;;-0.84;57.53;100928.22;6246263;28;20045;-75
2021/12/23 09:57:47;;;;;;;11.98;6.10;;;;;;;-0.79;57.20;100937.63;6244767;28;20037;-76
2021/12/23 10:00:49;;;;;;;14.68;7.15;;;;;;;-0.67;57.22;100933.34;6262014;28;20039;-76
2021/12/23 10:03:50;;;;;;;11.90;5.18;;;;;;;-0.65;55.98;100928.22;6262387;28;20037;-76
2021/12/23 10:06:51;;;;;;;7.45;4.75;;;;;;;-0.87;56.67;100922.25;6262946;28;20581;-76
2021/12/23 10:10:03;;;;;;;13.90;5.35;;;;;;;-0.75;57.00;100913.69;6262519;28;20476;-76
2021/12/23 10:26:52;;;;;;;11.20;6.07;;;;;;;-0.68;56.43;100910.25;6262287;28;20033;-75
2021/12/23 10:40:04;;;;;;;6.70;4.22;;;;;;;-0.27;54.14;100873.41;6262317;28;20394;-76
2021/12/23 10:43:08;;;;;;;10.30;4.68;;;;;;;0.01;54.77;100870.75;6267045;28;20053;-76
2021/12/23 10:46:12;;;;;;;10.90;5.60;;;;;;;0.28;53.90;100867.19;6272025;28;20094;-76
2021/12/23 10:53:02;;;;;;;6.60;3.70;;;;;;;-0.03;51.84;100859.66;6238495;28;20104;-79
2021/12/23 10:59:47;;;;;;;10.88;4.93;;;;;;;0.05;54.08;100852.78;6269526;28;20048;-79
2021/12/23 11:03:10;;;;;;;9.95;4.65;;;;;;;0.03;52.71;100839.09;6258373;28;20488;-79
2021/12/23 11:09:42;;;;;;;9.88;5.13;;;;;;;-0.04;52.76;100835.72;6255608;28;20505;-81
2021/12/23 11:40:06;;;;;;;7.65;4.03;;;;;;;-0.25;53.96;100762.28;6273059;28;20130;-75
2021/12/23 11:46:07;;;;;;;10.63;5.00;;;;;;;-0.30;53.44;100760.59;6262478;28;20533;-80
2021/12/23 11:49:12;;;;;;;7.43;3.85;;;;;;;-0.35;54.72;100759.75;6274134;28;20041;-75
2021/12/23 11:52:14;;;;;;;13.40;4.32;;;;;;;-0.24;55.31;100760.56;6269895;28;20404;-76
2021/12/23 11:55:16;;;;;;;9.63;4.38;;;;;;;-0.35;54.54;100759.75;6270430;28;20512;-75
2021/12/23 11:58:21;;;;;;;8.75;4.32;;;;;;;-0.33;53.60;100747.78;6253407;28;20091;-75
2021/12/23 12:01:28;;;;;;;6.65;4.15;;;;;;;-0.18;54.11;100750.28;6271281;28;20579;-76
2021/12/23 12:04:35;;;;;;;6.60;3.83;;;;;;;0.29;53.31;100756.81;6270273;28;20140;-75
2021/12/23 12:07:40;;;;;;;10.82;5.03;;;;;;;0.30;52.82;100744.81;6273453;28;20048;-79
2021/12/23 12:10:43;;;;;;;11.18;5.50;;;;;;;0.58;52.31;100746.28;6274655;28;20056;-79
2021/12/23 12:13:44;;;;;;;10.85;4.30;;;;;;;0.53;50.50;100737.75;6276134;28;20049;-79
2021/12/23 12:16:45;;;;;;;8.68;4.60;;;;;;;0.43;50.26;100728.44;6274074;28;20409;-79
2021/12/23 12:20:00;;;;;;;10.10;5.40;;;;;;;0.65;50.99;100730.84;6273938;28;20047;-80
2021/12/23 12:23:04;;;;;;;8.95;4.70;;;;;;;0.41;51.39;100727.59;6271934;28;20380;-80
2021/12/23 12:26:11;;;;;;;14.23;5.75;;;;;;;0.35;51.54;100717.38;6249407;28;20420;-78
2021/12/23 12:29:14;;;;;;;8.25;5.05;;;;;;;0.28;51.84;100713.19;6273075;28;20140;-76
2021/12/23 12:32:34;;;;;;;12.00;6.32;;;;;;;0.10;52.65;100712.44;6269746;28;20424;-75
2021/12/23 12:35:35;;;;;;;8.18;4.53;;;;;;;0.05;52.85;100711.63;6272302;28;20055;-76
2021/12/23 12:38:40;;;;;;;11.35;6.18;;;;;;;0.15;52.55;100713.28;6258318;28;20037;-76
2021/12/23 12:41:41;;;;;;;13.88;5.72;;;;;;;-0.01;52.02;100702.25;6275587;28;20470;-75
2021/12/23 12:44:59;;;;;;;9.75;5.75;;;;;;;-0.03;53.04;100704.00;6275430;28;20045;-79
2021/12/23 12:48:04;;;;;;;12.50;6.40;;;;;;;-0.13;51.51;100692.09;6265858;28;20045;-79
2021/12/23 12:51:19;;;;;;;12.98;6.25;;;;;;;-0.13;53.22;100681.81;6262903;28;20049;-79
2021/12/23 12:54:31;;;;;;;13.52;5.85;;;;;;;-0.03;51.87;100683.47;6280215;28;20045;-79
2021/12/23 12:57:39;;;;;;;12.23;5.53;;;;;;;-0.13;51.87;100684.38;6275035;28;20041;-74
2021/12/23 13:00:42;;;;;;;13.63;5.93;;;;;;;-0.33;51.82;100669.16;6277250;28;20044;-75
2021/12/23 13:03:53;;;;;;;12.65;6.18;;;;;;;-0.25;51.19;100669.97;6274913;28;20040;-79
2021/12/23 13:06:56;;;;;;;11.75;6.00;;;;;;;-0.15;52.31;100659.63;6275763;28;20045;-78
2021/12/23 13:14:19;;;;;;;11.52;5.60;;;;;;;-0.42;53.22;100657.22;6276147;28;20044;-76
2021/12/23 13:17:24;;;;;;;9.23;5.32;;;;;;;-0.44;51.81;100664.06;6273108;28;20045;-75
2021/12/23 13:20:41;;;;;;;11.30;4.97;;;;;;;-0.35;52.21;100657.19;6273306;28;20484;-76
2021/12/23 13:23:45;;;;;;;9.93;5.30;;;;;;;-0.48;52.82;100635.91;6274028;28;20512;-75
2021/12/23 13:26:46;;;;;;;13.98;6.38;;;;;;;-0.32;52.35;100636.66;6272705;28;20040;-75
2021/12/23 13:29:47;;;;;;;15.38;7.93;;;;;;;-0.31;52.53;100628.97;6273967;28;20036;-75
2021/12/23 13:33:01;;;;;;;66.60;27.70;;;;;;;-0.31;53.49;100631.53;6272221;28;20049;-75
2021/12/23 13:36:12;;;;;;;54.70;21.77;;;;;;;-0.33;53.32;100625.56;6249632;28;20054;-80
2021/12/23 13:39:19;;;;;;;24.65;11.48;;;;;;;-0.39;53.23;100627.28;6272479;28;20073;-80
2021/12/23 13:42:20;;;;;;;15.23;6.53;;;;;;;-0.29;52.98;100621.25;6275728;28;20041;-80
2021/12/23 13:45:22;;;;;;;11.90;5.90;;;;;;;-0.37;53.45;100630.69;6274726;28;20124;-75
2021/12/23 13:48:22;;;;;;;13.32;5.93;;;;;;;-0.31;53.78;100626.41;6255565;28;20075;-76
2021/12/23 13:51:27;;;;;;;16.15;7.18;;;;;;;-0.33;53.71;100628.13;6273066;28;20067;-80
2021/12/23 13:54:40;;;;;;;24.48;10.88;;;;;;;-0.44;53.99;100627.34;6248863;28;20045;-80
2021/12/23 13:57:46;;;;;;;28.92;11.52;;;;;;;-0.39;53.58;100606.78;6270993;28;20047;-79
2021/12/23 14:00:47;;;;;;;18.25;8.80;;;;;;;-0.51;54.52;100600.06;6273316;28;20083;-80
2021/12/23 14:03:48;;;;;;;26.13;9.85;;;;;;;-0.55;54.41;100606.91;6272901;28;20102;-80
2021/12/23 14:06:49;;;;;;;25.05;11.80;;;;;;;-0.60;54.35;100600.94;6271659;28;20045;-80
2021/12/23 14:09:59;;;;;;;53.95;23.02;;;;;;;-0.45;55.27;100602.56;6273256;28;20491;-80
2021/12/23 14:13:03;;;;;;;18.40;9.57;;;;;;;-0.64;54.63;100599.25;6273949;28;20040;-80
2021/12/23 14:16:04;;;;;;;39.35;15.05;;;;;;;-0.56;54.47;100600.06;6272396;28;20086;-78
2021/12/23 14:19:22;;;;;;;14.85;7.80;;;;;;;-0.58;54.94;100591.53;6269981;28;20037;-80
2021/12/23 14:25:50;;;;;;;14.50;7.63;;;;;;;-0.65;54.64;100579.63;6259186;28;20053;-80
2021/12/23 14:28:56;;;;;;;23.45;10.52;;;;;;;-0.62;55.00;100564.22;6282244;28;20434;-79
2021/12/23 14:31:57;;;;;;;15.82;8.20;;;;;;;-0.83;55.55;100550.69;6280030;28;20037;-80
2021/12/23 14:34:58;;;;;;;40.38;12.35;;;;;;;-0.80;55.81;100547.28;6234739;28;20106;-75
2021/12/23 14:38:00;;;;;;;72.28;23.65;;;;;;;-0.86;56.98;100529.38;6262490;28;20063;-75
2021/12/23 14:41:10;;;;;;;41.20;13.93;;;;;;;-0.72;56.72;100530.13;6272639;28;20091;-81
2021/12/23 14:44:22;;;;;;;64.70;18.17;;;;;;;-0.73;57.24;100536.09;6269721;28;20124;-80
2021/12/23 14:47:23;;;;;;;66.25;23.05;;;;;;;-0.75;56.87;100524.16;6271254;28;20052;-75
2021/12/23 14:50:25;;;;;;;43.92;17.58;;;;;;;-0.72;56.75;100522.44;6271128;28;20064;-81
2021/12/23 14:53:27;;;;;;;22.70;10.73;;;;;;;-0.85;56.00;100513.97;6271318;28;20264;-81
2021/12/23 14:56:28;;;;;;;15.82;8.07;;;;;;;-0.87;56.87;100513.13;6268800;28;20048;-81
2021/12/23 14:59:29;;;;;;;17.85;6.40;;;;;;;-0.91;57.76;100521.69;6258191;28;20091;-81
2021/12/23 15:02:30;;;;;;;14.70;7.20;;;;;;;-0.86;56.78;100519.97;6270830;28;20072;-81
2021/12/23 15:05:33;;;;;;;16.70;8.13;;;;;;;-0.98;58.21;100520.03;6261404;28;20044;-76
2021/12/23 15:08:34;;;;;;;;;;;;;;;-1.04;57.74;100518.38;6271779;28;20419;-81
2021/12/23 15:11:34;;;;;;;25.42;12.25;;;;;;;-0.97;57.97;100508.09;6253598;28;19947;-75
2021/12/23 15:14:48;;;;;;;30.48;14.13;;;;;;;-1.01;58.43;100494.44;6271466;28;20499;-76
2021/12/23 15:17:54;;;;;;;18.85;8.57;;;;;;;-1.00;57.63;100493.59;6270045;28;20123;-75
2021/12/23 15:20:56;;;;;;;21.10;9.38;;;;;;;-1.08;59.12;100477.41;6254390;28;20072;-81
2021/12/23 15:23:59;;;;;;;26.15;12.65;;;;;;;-1.09;59.36;100479.13;6253967;28;20044;-81
2021/12/23 15:27:03;;;;;;;20.67;11.40;;;;;;;-1.03;59.91;100480.78;6272683;28;20094;-81